sensor_id;sensor_type;location;lat;lon;timestamp;pressure;altitude;pressure_sealevel;temperature;humidity
4346;BME280;2186;49.866;7.986;2023-04-07T00:00:26;100204.91;;;8.67;100.00
4346;BME280;2186;49.866;7.986;2023-04-07T00:02:53;100205.09;;;8.59;100.00
4346;BME280;2186;49.866;7.986;2023-04-07T00:05:19;100214.03;;;8.54;100.00
4346;BME280;2186;49.866;7.986;2023-04-07T00:07:46;100205.19;;;8.55;100.00
4346;BME280;2186;49.866;7.986;2023-04-07T00:10:22;100203.88;;;8.74;100.00
4346;BME280;2186;49.866;7.986;2023-04-07T00:12:48;100212.19;;;8.57;100.00
4346;BME280;2186;49.866;7.986;2023-04-07T00:15:15;100203.44;;;8.54;100.00
4346;BME280;2186;49.866;7.986;2023-04-07T00:17:41;100201.72;;;8.53;100.00
4346;BME280;2186;49.866;7.986;2023-04-07T00:20:08;100196.28;;;8.57;100.00
4346;BME280;2186;49.866;7.986;2023-04-07T00:22:35;100197.81;;;8.69;100.00
4346;BME280;2186;49.866;7.986;2023-04-07T00:25:02;100183.75;;;8.66;100.00
4346;BME280;2186;49.866;7.986;2023-04-07T00:27:28;100191.53;;;8.73;100.00
4346;BME280;2186;49.866;7.986;2023-04-07T00:29:54;100181.72;;;8.78;100.00
4346;BME280;2186;49.866;7.986;2023-04-07T00:32:21;100181.72;;;8.77;100.00
4346;BME280;2186;49.866;7.986;2023-04-07T00:34:48;100180.72;;;8.82;100.00
4346;BME280;2186;49.866;7.986;2023-04-07T00:37:14;100175.34;;;8.85;100.00
4346;BME280;2186;49.866;7.986;2023-04-07T00:39:41;100167.22;;;8.93;100.00
4346;BME280;2186;49.866;7.986;2023-04-07T00:42:07;100159.97;;;9.00;100.00
4346;BME280;2186;49.866;7.986;2023-04-07T00:44:34;100161.72;;;9.01;100.00
4346;BME280;2186;49.866;7.986;2023-04-07T00:47:00;100155.53;;;9.00;100.00
4346;BME280;2186;49.866;7.986;2023-04-07T00:49:27;100147.56;;;9.02;100.00
4346;BME280;2186;49.866;7.986;2023-04-07T00:51:54;100162.84;;;8.90;100.00
4346;BME280;2186;49.866;7.986;2023-04-07T00:54:22;100156.75;;;8.87;100.00
4346;BME280;2186;49.866;7.986;2023-04-07T00:56:49;100154.44;;;8.73;100.00
4346;BME280;2186;49.866;7.986;2023-04-07T00:59:16;100152.66;;;8.74;100.00
4346;BME280;2186;49.866;7.986;2023-04-07T01:07:45;100131.53;;;8.71;100.00
4346;BME280;2186;49.866;7.986;2023-04-07T01:10:18;100134.06;;;8.75;100.00
4346;BME280;2186;49.866;7.986;2023-04-07T01:13:01;100129.03;;;8.63;100.00
4346;BME280;2186;49.866;7.986;2023-04-07T01:15:32;100131.19;;;8.84;100.00
4346;BME280;2186;49.866;7.986;2023-04-07T01:18:07;100129.63;;;8.76;100.00
4346;BME280;2186;49.866;7.986;2023-04-07T01:20:35;100125.06;;;8.82;100.00
4346;BME280;2186;49.866;7.986;2023-04-07T01:23:06;100126.84;;;8.82;100.00
4346;BME280;2186;49.866;7.986;2023-04-07T01:31:25;100111.69;;;8.51;100.00
4346;BME280;2186;49.866;7.986;2023-04-07T01:33:54;100110.84;;;8.48;100.00
4346;BME280;2186;49.866;7.986;2023-04-07T01:36:22;100113.50;;;8.48;100.00
4346;BME280;2186;49.866;7.986;2023-04-07T01:38:50;100114.53;;;8.42;100.00
4346;BME280;2186;49.866;7.986;2023-04-07T01:41:18;100108.94;;;8.54;100.00
4346;BME280;2186;49.866;7.986;2023-04-07T01:43:45;100107.97;;;8.58;100.00
4346;BME280;2186;49.866;7.986;2023-04-07T01:46:13;100108.78;;;8.60;100.00
4346;BME280;2186;49.866;7.986;2023-04-07T01:48:41;100095.28;;;8.71;100.00
4346;BME280;2186;49.866;7.986;2023-04-07T01:51:08;100093.56;;;8.70;100.00
4346;BME280;2186;49.866;7.986;2023-04-07T01:53:38;100091.66;;;8.75;100.00
4346;BME280;2186;49.866;7.986;2023-04-07T01:56:04;100085.53;;;8.73;100.00
4346;BME280;2186;49.866;7.986;2023-04-07T01:58:31;100085.69;;;8.67;100.00
4346;BME280;2186;49.866;7.986;2023-04-07T02:00:58;100090.25;;;8.60;100.00
4346;BME280;2186;49.866;7.986;2023-04-07T02:03:43;100093.94;;;8.55;100.00
4346;BME280;2186;49.866;7.986;2023-04-07T02:06:14;100084.19;;;8.55;100.00
4346;BME280;2186;49.866;7.986;2023-04-07T02:08:48;100089.81;;;8.42;100.00
4346;BME280;2186;49.866;7.986;2023-04-07T02:11:17;100083.72;;;8.38;100.00
4346;BME280;2186;49.866;7.986;2023-04-07T02:13:46;100085.97;;;8.55;100.00
4346;BME280;2186;49.866;7.986;2023-04-07T02:16:13;100088.75;;;8.50;100.00
4346;BME280;2186;49.866;7.986;2023-04-07T02:18:42;100084.28;;;8.52;100.00
4346;BME280;2186;49.866;7.986;2023-04-07T02:21:10;100090.56;;;8.47;100.00
4346;BME280;2186;49.866;7.986;2023-04-07T02:23:38;100094.13;;;8.46;100.00
4346;BME280;2186;49.866;7.986;2023-04-07T02:26:04;100089.63;;;8.49;100.00
4346;BME280;2186;49.866;7.986;2023-04-07T02:28:31;100092.28;;;8.49;100.00
4346;BME280;2186;49.866;7.986;2023-04-07T02:30:57;100095.81;;;8.48;100.00
4346;BME280;2186;49.866;7.986;2023-04-07T02:33:24;100092.19;;;8.54;100.00
4346;BME280;2186;49.866;7.986;2023-04-07T02:35:50;100083.78;;;8.35;100.00
4346;BME280;2186;49.866;7.986;2023-04-07T02:38:17;100086.25;;;8.43;100.00
4346;BME280;2186;49.866;7.986;2023-04-07T02:40:43;100085.09;;;8.54;100.00
4346;BME280;2186;49.866;7.986;2023-04-07T02:43:09;100090.69;;;8.42;100.00
4346;BME280;2186;49.866;7.986;2023-04-07T02:45:36;100079.34;;;8.36;100.00
4346;BME280;2186;49.866;7.986;2023-04-07T02:48:03;100085.59;;;8.31;100.00
4346;BME280;2186;49.866;7.986;2023-04-07T02:50:29;100076.69;;;8.36;100.00
4346;BME280;2186;49.866;7.986;2023-04-07T02:52:56;100076.38;;;8.49;100.00
4346;BME280;2186;49.866;7.986;2023-04-07T02:55:22;100084.31;;;8.49;100.00
4346;BME280;2186;49.866;7.986;2023-04-07T02:57:49;100079.09;;;8.46;100.00
4346;BME280;2186;49.866;7.986;2023-04-07T03:00:15;100075.81;;;8.37;100.00
4346;BME280;2186;49.866;7.986;2023-04-07T03:02:42;100082.66;;;8.45;100.00
4346;BME280;2186;49.866;7.986;2023-04-07T03:05:08;100071.25;;;8.43;100.00
4346;BME280;2186;49.866;7.986;2023-04-07T03:07:35;100065.00;;;8.46;100.00
4346;BME280;2186;49.866;7.986;2023-04-07T03:10:01;100073.31;;;8.29;100.00
4346;BME280;2186;49.866;7.986;2023-04-07T03:12:27;100062.72;;;8.29;100.00
4346;BME280;2186;49.866;7.986;2023-04-07T03:14:54;100067.56;;;8.49;100.00
4346;BME280;2186;49.866;7.986;2023-04-07T03:17:20;100063.28;;;8.43;100.00
4346;BME280;2186;49.866;7.986;2023-04-07T03:19:47;100069.25;;;8.53;100.00
4346;BME280;2186;49.866;7.986;2023-04-07T03:22:13;100070.38;;;8.43;100.00
4346;BME280;2186;49.866;7.986;2023-04-07T03:24:40;100061.41;;;8.48;100.00
4346;BME280;2186;49.866;7.986;2023-04-07T03:27:06;100065.03;;;8.44;100.00
4346;BME280;2186;49.866;7.986;2023-04-07T03:29:33;100064.13;;;8.45;100.00
4346;BME280;2186;49.866;7.986;2023-04-07T03:31:59;100061.44;;;8.47;100.00
4346;BME280;2186;49.866;7.986;2023-04-07T03:34:26;100055.84;;;8.59;100.00
4346;BME280;2186;49.866;7.986;2023-04-07T03:36:52;100060.97;;;8.67;100.00
4346;BME280;2186;49.866;7.986;2023-04-07T03:39:19;100050.81;;;8.48;100.00
4346;BME280;2186;49.866;7.986;2023-04-07T03:41:45;100050.84;;;8.47;100.00
4346;BME280;2186;49.866;7.986;2023-04-07T03:44:11;100052.28;;;8.23;100.00
4346;BME280;2186;49.866;7.986;2023-04-07T03:46:38;100052.19;;;8.26;100.00
4346;BME280;2186;49.866;7.986;2023-04-07T03:49:04;100054.78;;;8.29;100.00
4346;BME280;2186;49.866;7.986;2023-04-07T03:51:32;100047.19;;;8.14;100.00
4346;BME280;2186;49.866;7.986;2023-04-07T03:53:59;100047.97;;;8.17;100.00
4346;BME280;2186;49.866;7.986;2023-04-07T03:56:25;100047.53;;;8.39;100.00
4346;BME280;2186;49.866;7.986;2023-04-07T03:58:54;100054.31;;;8.50;100.00
4346;BME280;2186;49.866;7.986;2023-04-07T04:01:20;100048.47;;;8.35;100.00
4346;BME280;2186;49.866;7.986;2023-04-07T04:03:48;100041.44;;;8.32;100.00
4346;BME280;2186;49.866;7.986;2023-04-07T04:06:15;100044.47;;;8.55;100.00
4346;BME280;2186;49.866;7.986;2023-04-07T04:08:41;100044.06;;;8.35;100.00
4346;BME280;2186;49.866;7.986;2023-04-07T04:11:08;100046.06;;;8.24;100.00
4346;BME280;2186;49.866;7.986;2023-04-07T04:13:34;100048.53;;;8.31;100.00
4346;BME280;2186;49.866;7.986;2023-04-07T04:16:01;100046.97;;;8.23;100.00
4346;BME280;2186;49.866;7.986;2023-04-07T04:18:27;100054.72;;;8.30;100.00
4346;BME280;2186;49.866;7.986;2023-04-07T04:20:54;100059.13;;;8.31;100.00
4346;BME280;2186;49.866;7.986;2023-04-07T04:23:20;100051.31;;;8.25;100.00
4346;BME280;2186;49.866;7.986;2023-04-07T04:25:47;100062.78;;;8.26;100.00
4346;BME280;2186;49.866;7.986;2023-04-07T04:28:13;100055.75;;;8.25;100.00
4346;BME280;2186;49.866;7.986;2023-04-07T04:30:39;100063.03;;;8.15;100.00
4346;BME280;2186;49.866;7.986;2023-04-07T04:33:06;100062.00;;;8.22;100.00
4346;BME280;2186;49.866;7.986;2023-04-07T04:35:33;100059.94;;;8.33;100.00
4346;BME280;2186;49.866;7.986;2023-04-07T04:37:59;100055.34;;;8.43;100.00
4346;BME280;2186;49.866;7.986;2023-04-07T04:40:25;100067.84;;;8.38;100.00
4346;BME280;2186;49.866;7.986;2023-04-07T04:42:52;100062.25;;;8.50;100.00
4346;BME280;2186;49.866;7.986;2023-04-07T04:45:18;100064.09;;;8.47;100.00
4346;BME280;2186;49.866;7.986;2023-04-07T04:47:45;100062.31;;;8.47;100.00
4346;BME280;2186;49.866;7.986;2023-04-07T04:50:11;100066.66;;;8.51;100.00
4346;BME280;2186;49.866;7.986;2023-04-07T04:52:38;100072.78;;;8.53;100.00
4346;BME280;2186;49.866;7.986;2023-04-07T04:55:05;100071.81;;;8.56;100.00
4346;BME280;2186;49.866;7.986;2023-04-07T04:57:31;100071.91;;;8.53;100.00
4346;BME280;2186;49.866;7.986;2023-04-07T05:00:01;100072.53;;;8.63;100.00
4346;BME280;2186;49.866;7.986;2023-04-07T05:02:29;100072.47;;;8.66;100.00
4346;BME280;2186;49.866;7.986;2023-04-07T05:04:56;100073.34;;;8.66;100.00
4346;BME280;2186;49.866;7.986;2023-04-07T05:07:23;100071.56;;;8.67;100.00
4346;BME280;2186;49.866;7.986;2023-04-07T05:09:49;100071.66;;;8.62;100.00
4346;BME280;2186;49.866;7.986;2023-04-07T05:12:16;100073.44;;;8.61;100.00
4346;BME280;2186;49.866;7.986;2023-04-07T05:14:42;100071.50;;;8.70;100.00
4346;BME280;2186;49.866;7.986;2023-04-07T05:17:09;100073.47;;;8.60;100.00
4346;BME280;2186;49.866;7.986;2023-04-07T05:19:35;100072.44;;;8.67;100.00
4346;BME280;2186;49.866;7.986;2023-04-07T05:22:02;100073.34;;;8.66;100.00
4346;BME280;2186;49.866;7.986;2023-04-07T05:24:28;100072.16;;;8.79;100.00
4346;BME280;2186;49.866;7.986;2023-04-07T05:26:55;100068.81;;;8.71;100.00
4346;BME280;2186;49.866;7.986;2023-04-07T05:29:22;100067.94;;;8.71;100.00
4346;BME280;2186;49.866;7.986;2023-04-07T05:31:48;100080.31;;;8.70;100.00
4346;BME280;2186;49.866;7.986;2023-04-07T05:34:15;100073.97;;;8.76;100.00
4346;BME280;2186;49.866;7.986;2023-04-07T05:36:41;100075.66;;;8.80;100.00
4346;BME280;2186;49.866;7.986;2023-04-07T05:39:08;100072.28;;;8.73;100.00
4346;BME280;2186;49.866;7.986;2023-04-07T05:41:34;100073.22;;;8.71;100.00
4346;BME280;2186;49.866;7.986;2023-04-07T05:44:01;100069.75;;;8.69;100.00
4346;BME280;2186;49.866;7.986;2023-04-07T05:46:28;100073.31;;;8.68;100.00
4346;BME280;2186;49.866;7.986;2023-04-07T05:48:54;100076.72;;;8.73;100.00
4346;BME280;2186;49.866;7.986;2023-04-07T05:51:22;100079.28;;;8.76;100.00
4346;BME280;2186;49.866;7.986;2023-04-07T05:53:48;100076.63;;;8.77;100.00
4346;BME280;2186;49.866;7.986;2023-04-07T05:56:15;100079.31;;;8.74;100.00
4346;BME280;2186;49.866;7.986;2023-04-07T05:58:42;100068.84;;;8.70;100.00
4346;BME280;2186;49.866;7.986;2023-04-07T06:01:08;100072.25;;;8.75;100.00
4346;BME280;2186;49.866;7.986;2023-04-07T06:03:35;100084.56;;;8.76;100.00
4346;BME280;2186;49.866;7.986;2023-04-07T06:06:01;100078.31;;;8.80;100.00
4346;BME280;2186;49.866;7.986;2023-04-07T06:08:28;100081.75;;;8.83;100.00
4346;BME280;2186;49.866;7.986;2023-04-07T06:10:54;100080.88;;;8.83;100.00
4346;BME280;2186;49.866;7.986;2023-04-07T06:13:21;100080.53;;;8.97;100.00
4346;BME280;2186;49.866;7.986;2023-04-07T06:15:47;100082.09;;;9.04;100.00
4346;BME280;2186;49.866;7.986;2023-04-07T06:18:14;100084.56;;;9.11;100.00
4346;BME280;2186;49.866;7.986;2023-04-07T06:20:41;100090.06;;;9.38;100.00
4346;BME280;2186;49.866;7.986;2023-04-07T06:23:07;100100.50;;;9.44;100.00
4346;BME280;2186;49.866;7.986;2023-04-07T06:25:33;100094.63;;;9.31;100.00
4346;BME280;2186;49.866;7.986;2023-04-07T06:28:00;100097.25;;;9.34;100.00
4346;BME280;2186;49.866;7.986;2023-04-07T06:30:27;100092.91;;;9.30;100.00
4346;BME280;2186;49.866;7.986;2023-04-07T06:32:53;100098.34;;;9.26;100.00
4346;BME280;2186;49.866;7.986;2023-04-07T06:35:20;100100.69;;;9.69;100.00
4346;BME280;2186;49.866;7.986;2023-04-07T06:37:47;100096.31;;;9.68;100.00
4346;BME280;2186;49.866;7.986;2023-04-07T06:40:13;100105.28;;;9.64;100.00
4346;BME280;2186;49.866;7.986;2023-04-07T06:42:40;100097.78;;;9.47;100.00
4346;BME280;2186;49.866;7.986;2023-04-07T06:45:07;100095.00;;;9.83;100.00
4346;BME280;2186;49.866;7.986;2023-04-07T06:47:33;100103.00;;;9.81;100.00
4346;BME280;2186;49.866;7.986;2023-04-07T06:50:00;100099.28;;;9.56;100.00
4346;BME280;2186;49.866;7.986;2023-04-07T06:52:26;100103.88;;;9.50;100.00
4346;BME280;2186;49.866;7.986;2023-04-07T06:54:52;100101.25;;;9.49;100.00
4346;BME280;2186;49.866;7.986;2023-04-07T06:57:19;100107.72;;;9.39;100.00
4346;BME280;2186;49.866;7.986;2023-04-07T06:59:45;100111.38;;;9.35;100.00
4346;BME280;2186;49.866;7.986;2023-04-07T07:02:12;100108.78;;;9.32;100.00
4346;BME280;2186;49.866;7.986;2023-04-07T07:04:38;100107.06;;;9.63;100.00
4346;BME280;2186;49.866;7.986;2023-04-07T07:07:05;100116.03;;;9.58;100.00
4346;BME280;2186;49.866;7.986;2023-04-07T07:09:32;100115.88;;;9.31;100.00
4346;BME280;2186;49.866;7.986;2023-04-07T07:11:58;100112.19;;;9.37;100.00
4346;BME280;2186;49.866;7.986;2023-04-07T07:14:29;100111.88;;;9.49;100.00
4346;BME280;2186;49.866;7.986;2023-04-07T07:16:55;100120.66;;;9.82;100.00
4346;BME280;2186;49.866;7.986;2023-04-07T07:19:22;100111.69;;;9.55;100.00
4346;BME280;2186;49.866;7.986;2023-04-07T07:21:48;100114.94;;;9.34;100.00
4346;BME280;2186;49.866;7.986;2023-04-07T07:24:14;100116.00;;;9.59;100.00
4346;BME280;2186;49.866;7.986;2023-04-07T07:26:41;100112.84;;;9.77;100.00
4346;BME280;2186;49.866;7.986;2023-04-07T07:29:09;100113.03;;;9.70;100.00
4346;BME280;2186;49.866;7.986;2023-04-07T07:31:36;100113.47;;;9.86;100.00
4346;BME280;2186;49.866;7.986;2023-04-07T07:34:02;100115.13;;;9.91;100.00
4346;BME280;2186;49.866;7.986;2023-04-07T07:36:29;100117.19;;;9.80;100.00
4346;BME280;2186;49.866;7.986;2023-04-07T07:38:57;100123.16;;;9.88;100.00
4346;BME280;2186;49.866;7.986;2023-04-07T07:41:23;100117.94;;;10.16;100.00
4346;BME280;2186;49.866;7.986;2023-04-07T07:43:51;100121.41;;;10.48;100.00
4346;BME280;2186;49.866;7.986;2023-04-07T07:46:18;100113.50;;;10.46;100.00
4346;BME280;2186;49.866;7.986;2023-04-07T07:48:44;100125.16;;;10.70;100.00
4346;BME280;2186;49.866;7.986;2023-04-07T07:51:12;100119.44;;;10.54;100.00
4346;BME280;2186;49.866;7.986;2023-04-07T07:53:38;100117.31;;;10.65;100.00
4346;BME280;2186;49.866;7.986;2023-04-07T07:56:05;100130.06;;;10.54;100.00
4346;BME280;2186;49.866;7.986;2023-04-07T07:58:31;100124.78;;;10.81;100.00
4346;BME280;2186;49.866;7.986;2023-04-07T08:00:58;100130.63;;;10.92;100.00
4346;BME280;2186;49.866;7.986;2023-04-07T08:03:24;100136.78;;;10.66;100.00
4346;BME280;2186;49.866;7.986;2023-04-07T08:05:51;100137.22;;;10.52;100.00
4346;BME280;2186;49.866;7.986;2023-04-07T08:08:18;100146.84;;;10.56;100.00
4346;BME280;2186;49.866;7.986;2023-04-07T08:10:44;100145.38;;;10.46;100.00
4346;BME280;2186;49.866;7.986;2023-04-07T08:13:11;100147.41;;;10.66;100.00
4346;BME280;2186;49.866;7.986;2023-04-07T08:15:38;100145.38;;;10.46;100.00
4346;BME280;2186;49.866;7.986;2023-04-07T08:18:05;100149.59;;;10.53;100.00
4346;BME280;2186;49.866;7.986;2023-04-07T08:20:32;100150.00;;;10.39;100.00
4346;BME280;2186;49.866;7.986;2023-04-07T08:22:59;100153.03;;;10.57;100.00
4346;BME280;2186;49.866;7.986;2023-04-07T08:25:28;100153.00;;;10.58;100.00
4346;BME280;2186;49.866;7.986;2023-04-07T08:27:54;100150.44;;;10.83;100.00
4346;BME280;2186;49.866;7.986;2023-04-07T08:30:21;100157.06;;;10.70;100.00
4346;BME280;2186;49.866;7.986;2023-04-07T08:32:47;100156.84;;;11.04;100.00
4346;BME280;2186;49.866;7.986;2023-04-07T08:35:14;100152.59;;;10.98;100.00
4346;BME280;2186;49.866;7.986;2023-04-07T08:37:40;100151.56;;;11.03;100.00
4346;BME280;2186;49.866;7.986;2023-04-07T08:40:09;100153.66;;;10.93;100.00
4346;BME280;2186;49.866;7.986;2023-04-07T08:42:40;100150.94;;;10.94;100.00
4346;BME280;2186;49.866;7.986;2023-04-07T08:45:08;100162.53;;;10.92;100.00
4346;BME280;2186;49.866;7.986;2023-04-07T08:47:35;100164.44;;;10.88;100.00
4346;BME280;2186;49.866;7.986;2023-04-07T08:50:06;100160.66;;;10.95;100.00
4346;BME280;2186;49.866;7.986;2023-04-07T08:52:44;100163.31;;;10.95;100.00
4346;BME280;2186;49.866;7.986;2023-04-07T08:55:11;100164.91;;;11.01;100.00
4346;BME280;2186;49.866;7.986;2023-04-07T08:57:38;100157.81;;;11.02;100.00
4346;BME280;2186;49.866;7.986;2023-04-07T09:00:06;100167.72;;;11.23;100.00
4346;BME280;2186;49.866;7.986;2023-04-07T09:02:35;100166.97;;;11.19;100.00
4346;BME280;2186;49.866;7.986;2023-04-07T09:05:04;100174.09;;;11.19;100.00
4346;BME280;2186;49.866;7.986;2023-04-07T09:07:32;100162.16;;;11.04;100.00
4346;BME280;2186;49.866;7.986;2023-04-07T09:09:59;100174.91;;;11.21;100.00
4346;BME280;2186;49.866;7.986;2023-04-07T09:12:28;100172.91;;;11.54;100.00
4346;BME280;2186;49.866;7.986;2023-04-07T09:14:55;100175.19;;;11.40;100.00
4346;BME280;2186;49.866;7.986;2023-04-07T09:17:24;100173.06;;;11.23;100.00
4346;BME280;2186;49.866;7.986;2023-04-07T09:19:55;100175.56;;;11.54;100.00
4346;BME280;2186;49.866;7.986;2023-04-07T09:22:40;100182.78;;;11.50;100.00
4346;BME280;2186;49.866;7.986;2023-04-07T09:27:56;100186.28;;;11.79;100.00
4346;BME280;2186;49.866;7.986;2023-04-07T09:30:23;100184.09;;;11.39;100.00
4346;BME280;2186;49.866;7.986;2023-04-07T09:32:50;100185.41;;;11.52;100.00
4346;BME280;2186;49.866;7.986;2023-04-07T09:35:17;100183.75;;;11.48;100.00
4346;BME280;2186;49.866;7.986;2023-04-07T09:37:44;100186.69;;;11.40;100.00
4346;BME280;2186;49.866;7.986;2023-04-07T09:40:11;100187.47;;;11.69;100.00
4346;BME280;2186;49.866;7.986;2023-04-07T09:42:45;100187.59;;;11.66;100.00
4346;BME280;2186;49.866;7.986;2023-04-07T09:45:11;100192.31;;;11.84;100.00
4346;BME280;2186;49.866;7.986;2023-04-07T09:47:53;100195.94;;;12.06;100.00
4346;BME280;2186;49.866;7.986;2023-04-07T09:50:38;100193.88;;;11.90;100.00
4346;BME280;2186;49.866;7.986;2023-04-07T09:53:05;100188.97;;;12.02;100.00
4346;BME280;2186;49.866;7.986;2023-04-07T09:55:32;100197.84;;;11.76;100.00
4346;BME280;2186;49.866;7.986;2023-04-07T09:57:59;100200.56;;;11.75;100.00
4346;BME280;2186;49.866;7.986;2023-04-07T10:00:26;100190.91;;;11.72;100.00
4346;BME280;2186;49.866;7.986;2023-04-07T10:02:52;100199.13;;;11.65;100.00
4346;BME280;2186;49.866;7.986;2023-04-07T10:05:19;100197.25;;;11.68;100.00
4346;BME280;2186;49.866;7.986;2023-04-07T10:07:48;100195.31;;;11.73;100.00
4346;BME280;2186;49.866;7.986;2023-04-07T10:10:15;100191.91;;;11.43;100.00
4346;BME280;2186;49.866;7.986;2023-04-07T10:12:42;100191.78;;;11.46;100.00
4346;BME280;2186;49.866;7.986;2023-04-07T10:15:11;100197.50;;;11.61;100.00
4346;BME280;2186;49.866;7.986;2023-04-07T10:17:39;100199.75;;;11.73;100.00
4346;BME280;2186;49.866;7.986;2023-04-07T10:20:07;100208.16;;;11.61;100.00
4346;BME280;2186;49.866;7.986;2023-04-07T10:22:35;100207.34;;;11.32;100.00
4346;BME280;2186;49.866;7.986;2023-04-07T10:25:08;100198.91;;;11.46;100.00
4346;BME280;2186;49.866;7.986;2023-04-07T10:27:44;100213.81;;;11.51;100.00
4346;BME280;2186;49.866;7.986;2023-04-07T10:30:20;100212.97;;;11.49;100.00
4346;BME280;2186;49.866;7.986;2023-04-07T10:32:48;100214.06;;;11.44;100.00
4346;BME280;2186;49.866;7.986;2023-04-07T10:35:15;100216.16;;;11.61;100.00
4346;BME280;2186;49.866;7.986;2023-04-07T10:40:36;100216.00;;;11.65;100.00
4346;BME280;2186;49.866;7.986;2023-04-07T10:43:03;100221.97;;;11.72;100.00
4346;BME280;2186;49.866;7.986;2023-04-07T10:48:18;100219.78;;;11.58;100.00
4346;BME280;2186;49.866;7.986;2023-04-07T10:50:46;100222.69;;;11.50;100.00
4346;BME280;2186;49.866;7.986;2023-04-07T10:53:33;100225.34;;;11.52;100.00
4346;BME280;2186;49.866;7.986;2023-04-07T10:56:03;100233.56;;;11.71;100.00
4346;BME280;2186;49.866;7.986;2023-04-07T10:58:31;100233.19;;;11.83;100.00
4346;BME280;2186;49.866;7.986;2023-04-07T11:03:40;100240.47;;;11.76;99.79
4346;BME280;2186;49.866;7.986;2023-04-07T11:08:36;100234.75;;;11.89;100.00
4346;BME280;2186;49.866;7.986;2023-04-07T11:11:04;100235.13;;;12.03;99.66
4346;BME280;2186;49.866;7.986;2023-04-07T11:13:45;100234.19;;;12.04;100.00
4346;BME280;2186;49.866;7.986;2023-04-07T11:16:13;100240.81;;;11.92;100.00
4346;BME280;2186;49.866;7.986;2023-04-07T11:18:41;100240.63;;;11.72;99.34
4346;BME280;2186;49.866;7.986;2023-04-07T11:21:08;100243.66;;;11.88;100.00
4346;BME280;2186;49.866;7.986;2023-04-07T11:23:42;100233.06;;;11.86;100.00
4346;BME280;2186;49.866;7.986;2023-04-07T11:26:10;100241.75;;;11.91;99.61
4346;BME280;2186;49.866;7.986;2023-04-07T11:28:54;100241.91;;;11.86;99.96
4346;BME280;2186;49.866;7.986;2023-04-07T11:31:25;100238.66;;;12.03;100.00
4346;BME280;2186;49.866;7.986;2023-04-07T11:33:57;100237.53;;;11.85;100.00
4346;BME280;2186;49.866;7.986;2023-04-07T11:36:29;100244.38;;;11.93;100.00
4346;BME280;2186;49.866;7.986;2023-04-07T11:38:56;100251.34;;;12.22;99.82
4346;BME280;2186;49.866;7.986;2023-04-07T11:41:24;100242.97;;;12.07;100.00
4346;BME280;2186;49.866;7.986;2023-04-07T11:44:10;100246.13;;;11.94;100.00
4346;BME280;2186;49.866;7.986;2023-04-07T11:47:00;100245.19;;;11.95;98.80
4346;BME280;2186;49.866;7.986;2023-04-07T11:49:29;100250.25;;;11.76;100.00
4346;BME280;2186;49.866;7.986;2023-04-07T11:52:04;100247.41;;;11.82;100.00
4346;BME280;2186;49.866;7.986;2023-04-07T11:54:44;100247.81;;;11.96;100.00
4346;BME280;2186;49.866;7.986;2023-04-07T11:57:27;100248.06;;;11.89;99.98
4346;BME280;2186;49.866;7.986;2023-04-07T12:00:10;100250.91;;;11.84;98.45
4346;BME280;2186;49.866;7.986;2023-04-07T12:02:37;100254.16;;;11.92;99.23
4346;BME280;2186;49.866;7.986;2023-04-07T12:05:04;100260.47;;;12.14;99.23
4346;BME280;2186;49.866;7.986;2023-04-07T12:07:31;100261.94;;;11.98;98.37
4346;BME280;2186;49.866;7.986;2023-04-07T12:10:17;100264.31;;;12.06;97.49
4346;BME280;2186;49.866;7.986;2023-04-07T12:12:45;100264.25;;;11.82;97.87
4346;BME280;2186;49.866;7.986;2023-04-07T12:15:11;100261.63;;;12.07;98.68
4346;BME280;2186;49.866;7.986;2023-04-07T12:17:43;100259.53;;;11.91;96.52
4346;BME280;2186;49.866;7.986;2023-04-07T12:20:10;100256.38;;;11.79;97.22
4346;BME280;2186;49.866;7.986;2023-04-07T12:22:36;100263.69;;;11.99;98.13
4346;BME280;2186;49.866;7.986;2023-04-07T12:25:03;100269.75;;;12.03;97.62
4346;BME280;2186;49.866;7.986;2023-04-07T12:27:29;100264.81;;;11.92;97.59
4346;BME280;2186;49.866;7.986;2023-04-07T12:30:08;100265.88;;;11.86;98.99
4346;BME280;2186;49.866;7.986;2023-04-07T12:32:35;100272.03;;;11.89;97.98
4346;BME280;2186;49.866;7.986;2023-04-07T12:35:03;100267.16;;;12.01;96.60
4346;BME280;2186;49.866;7.986;2023-04-07T12:37:30;100267.38;;;11.95;97.86
4346;BME280;2186;49.866;7.986;2023-04-07T12:39:58;100274.59;;;12.16;97.31
4346;BME280;2186;49.866;7.986;2023-04-07T12:42:25;100275.53;;;12.15;95.88
4346;BME280;2186;49.866;7.986;2023-04-07T12:44:52;100279.28;;;12.10;96.67
4346;BME280;2186;49.866;7.986;2023-04-07T12:47:18;100280.16;;;12.10;96.84
4346;BME280;2186;49.866;7.986;2023-04-07T12:49:45;100274.59;;;11.92;97.67
4346;BME280;2186;49.866;7.986;2023-04-07T12:52:14;100279.38;;;11.82;97.39
4346;BME280;2186;49.866;7.986;2023-04-07T12:54:41;100284.41;;;12.16;96.07
4346;BME280;2186;49.866;7.986;2023-04-07T12:57:09;100282.84;;;12.10;95.07
4346;BME280;2186;49.866;7.986;2023-04-07T12:59:36;100274.44;;;11.96;96.24
4346;BME280;2186;49.866;7.986;2023-04-07T13:02:02;100279.03;;;11.91;97.65
4346;BME280;2186;49.866;7.986;2023-04-07T13:04:30;100270.31;;;12.12;97.11
4346;BME280;2186;49.866;7.986;2023-04-07T13:06:56;100278.44;;;12.09;96.59
4346;BME280;2186;49.866;7.986;2023-04-07T13:09:23;100278.34;;;11.86;98.28
4346;BME280;2186;49.866;7.986;2023-04-07T13:11:50;100285.84;;;12.00;98.25
4346;BME280;2186;49.866;7.986;2023-04-07T13:14:17;100289.03;;;12.11;96.98
4346;BME280;2186;49.866;7.986;2023-04-07T13:16:43;100285.69;;;12.04;99.01
4346;BME280;2186;49.866;7.986;2023-04-07T13:19:10;100290.00;;;12.08;97.93
4346;BME280;2186;49.866;7.986;2023-04-07T13:21:36;100292.50;;;12.13;99.65
4346;BME280;2186;49.866;7.986;2023-04-07T13:24:06;100287.72;;;11.98;97.26
4346;BME280;2186;49.866;7.986;2023-04-07T13:26:33;100293.56;;;11.82;98.91
4346;BME280;2186;49.866;7.986;2023-04-07T13:28:59;100288.97;;;12.12;99.45
4346;BME280;2186;49.866;7.986;2023-04-07T13:31:26;100293.16;;;12.20;99.13
4346;BME280;2186;49.866;7.986;2023-04-07T13:33:53;100290.50;;;11.95;98.57
4346;BME280;2186;49.866;7.986;2023-04-07T13:36:20;100288.97;;;12.12;99.25